עמוד ראשי
METAR-TAF:

METAR-TAF

שדות תעופה :

Charlotte County Airport

Punta Gorda, פלורידה, ארצות הברית

קו רוחב: 26-55-04N, קו אורך: 081-59-37W, גובה: 7מטר

תצפית מזג אוויר נוכחית

הדו"ח נערך לפני 26דקות, בשעה 19:53 UTC
רוח 17קשר מכיוון מזרח עם משבים עד 25קשר
טמפרטורת 34 צלסיוס
לחות 44%
לחץ 1014 hPa
ראות: 16.1קילומטר
שמיים נקיים

METAR: KPGD 171953Z 10017G25KT 10SM CLR 34/20 A2994 RMK AO2 PK WND 08030/1934 SLP138 T03440200

זמן: 16:19 (20:19 UTC)

תחזית

הדו"ח נערך לפני 2 שעות ו 59דקות, בשעה 17:20 UTC
תחזית בתוקף מ 17 ב 18 UTC עד 18 ב 18 UTC
רוח 14קשר מכיוון מזרח עם משבים עד 23קשר
ראות: 10קילומטר
עננים פזורים בגובה 2500רגל
עננים בינוניים בגובה 25000רגל
מ 18 ב 0200UTC
רוח 10קשר מכיוון מזרח
ראות: 10קילומטר
מעט עננים בגובה 4000רגל
מעט עננים בגובה 25000רגל
מ 18 ב 1400UTC
רוח 12קשר מכיוון מזרח עם משבים עד 22קשר
ראות: 10קילומטר
מעט עננים בגובה 4000רגל
עננים פזורים בגובה 25000רגל

TAF: KPGD 171720Z 1718/1818 09014G23KT P6SM SCT025 BKN250 FM180200 08010KT P6SM FEW040 FEW250 FM181400 10012G22KT P6SM FEW040 SCT250

תצפיות ותחזיות מזג אוויר לגבי יותר מ- 4,000 שדות תעופה ברחבי העולם. דוחות METAR ו- TAF.

התחנות הזמינות מסומנות בנקודות צהובות ואדומות על גבי המפה.

העבר את העכבר לנקודה הצבעונית על מנת לראות את שם התחנה.

לאחר מכן, לחץ כדי לראות את תוכן ואת תחזיות מזג האוויר.

כדי לשנות את המפה: לחץ על הכפתורים הירוקים עם הפלוס השחור כדי להתקרב; על הכפתור הירוק עם המקף כדי להתרחק; או בחיצים הירוקים למפות סמוכות.


METAR-TAF: